createdAt,value
2022-11-24T00:02:02.121Z,41.6
2022-11-24T00:07:01.300Z,40.1
2022-11-24T00:12:01.833Z,39.8
2022-11-24T00:17:01.788Z,39.2
2022-11-24T00:22:01.454Z,39.0
2022-11-24T00:27:01.413Z,38.8
2022-11-24T00:32:01.370Z,39.9
2022-11-24T00:37:01.650Z,40.8
2022-11-24T00:42:01.675Z,41.2
2022-11-24T00:47:02.540Z,40.1
2022-11-24T00:52:01.668Z,40.0
2022-11-24T00:57:01.673Z,39.1
2022-11-24T01:02:01.994Z,35.5
2022-11-24T01:07:02.122Z,36.5
2022-11-24T01:12:01.669Z,37.7
2022-11-24T01:17:01.671Z,35.2
2022-11-24T01:22:01.803Z,35.2
2022-11-24T01:27:01.632Z,38.5
2022-11-24T01:32:01.644Z,37.3
2022-11-24T01:37:02.041Z,36.7
2022-11-24T01:42:03.269Z,40.2
2022-11-24T01:47:17.182Z,41.0
2022-11-24T01:52:01.500Z,40.8
2022-11-24T01:57:01.439Z,40.6
2022-11-24T02:02:01.583Z,40.8
2022-11-24T02:08:01.260Z,40.7
2022-11-24T02:13:01.005Z,40.2
2022-11-24T02:18:01.411Z,40.4
2022-11-24T02:23:01.341Z,41.0
2022-11-24T02:28:05.321Z,38.0
2022-11-24T02:33:01.629Z,36.3
2022-11-24T02:38:02.231Z,35.5
2022-11-24T02:43:01.637Z,35.7
2022-11-24T02:48:01.665Z,35.0
2022-11-24T02:53:02.148Z,37.4
2022-11-24T02:58:01.585Z,37.6
2022-11-24T03:03:01.829Z,37.6
2022-11-24T03:08:01.666Z,37.0
2022-11-24T03:13:01.678Z,35.8
2022-11-24T03:18:01.757Z,36.2
2022-11-24T03:23:01.660Z,37.5
2022-11-24T03:33:01.574Z,38.2
2022-11-24T03:38:01.761Z,40.2
2022-11-24T03:43:01.648Z,41.0
2022-11-24T03:48:01.630Z,40.6
2022-11-24T03:53:02.808Z,40.4
2022-11-24T03:58:01.795Z,39.8
2022-11-24T04:03:01.872Z,39.6
2022-11-24T04:08:01.653Z,38.4
2022-11-24T04:13:01.628Z,38.1
2022-11-24T04:18:01.783Z,38.3
2022-11-24T04:23:01.638Z,35.6
2022-11-24T04:28:01.674Z,35.4
2022-11-24T04:33:01.625Z,36.0
2022-11-24T04:38:01.957Z,35.9
2022-11-24T04:43:02.057Z,36.1
2022-11-24T04:48:01.445Z,38.6
2022-11-24T04:53:02.022Z,39.2
2022-11-24T04:58:01.468Z,39.4
2022-11-24T05:03:01.937Z,39.7
2022-11-24T05:08:01.560Z,39.4
2022-11-24T05:13:01.532Z,40.5
2022-11-24T05:18:01.679Z,39.5
2022-11-24T05:28:01.710Z,38.8
2022-11-24T05:33:07.111Z,38.6
2022-11-24T05:38:01.341Z,38.4
2022-11-24T05:43:01.375Z,38.4
2022-11-24T05:48:01.108Z,38.4
2022-11-24T05:53:01.700Z,38.2
2022-11-24T05:58:01.701Z,38.1
2022-11-24T06:03:01.796Z,39.4
2022-11-24T06:08:01.515Z,40.1
2022-11-24T06:13:01.473Z,41.2
2022-11-24T06:18:01.168Z,42.2
2022-11-24T06:23:01.965Z,44.6
2022-11-24T06:28:01.677Z,44.4
2022-11-24T06:33:01.644Z,45.6
2022-11-24T06:38:01.689Z,46.4
2022-11-24T06:43:01.646Z,46.2
2022-11-24T06:48:01.665Z,44.6
2022-11-24T06:53:01.758Z,44.0
2022-11-24T06:58:01.684Z,43.2
2022-11-24T07:25:02.634Z,41.2
2022-11-24T07:30:02.383Z,39.0
2022-11-24T07:35:01.399Z,38.0
2022-11-24T07:40:01.312Z,39.0
2022-11-24T07:45:07.317Z,40.1
2022-11-24T07:50:01.839Z,40.5
2022-11-24T07:55:01.310Z,41.2
2022-11-24T08:00:03.676Z,42.7
2022-11-24T08:05:01.587Z,42.3
2022-11-24T08:10:01.182Z,42.2
2022-11-24T08:15:11.942Z,43.0
2022-11-24T08:20:01.331Z,43.1
2022-11-24T08:25:01.336Z,41.7
2022-11-24T08:30:01.419Z,40.4
2022-11-24T08:35:15.327Z,39.9
2022-11-24T08:40:01.359Z,39.1
2022-11-24T08:45:22.504Z,38.8
2022-11-24T08:50:01.408Z,40.0
2022-11-24T08:55:01.657Z,40.8
2022-11-24T09:00:03.024Z,42.2
2022-11-24T09:05:01.431Z,43.8
2022-11-24T09:10:01.729Z,43.1
2022-11-24T09:15:01.987Z,44.2
2022-11-24T09:20:02.376Z,46.0
2022-11-24T09:25:01.470Z,45.4
2022-11-24T09:30:02.390Z,43.2
2022-11-24T09:35:01.325Z,44.5
2022-11-24T09:40:01.313Z,43.7
2022-11-24T09:45:49.253Z,44.5
2022-11-24T09:50:01.335Z,44.0
2022-11-24T09:55:01.352Z,44.2
2022-11-24T10:00:10.544Z,44.0
2022-11-24T10:10:01.929Z,42.3
2022-11-24T10:15:15.976Z,45.2
2022-11-24T10:20:01.146Z,47.6
2022-11-24T10:25:01.079Z,50.2
2022-11-24T10:30:01.970Z,49.2
2022-11-24T10:35:01.265Z,49.7
2022-11-24T10:40:01.117Z,47.1
2022-11-24T10:45:09.469Z,45.0
2022-11-24T10:50:01.118Z,42.9
2022-11-24T10:55:01.174Z,44.8
2022-11-24T11:00:03.625Z,45.2
2022-11-24T11:05:01.279Z,45.4
2022-11-24T11:10:00.855Z,47.0
2022-11-24T11:15:16.551Z,47.5
2022-11-24T11:20:03.004Z,46.9
2022-11-24T11:25:00.908Z,46.6
2022-11-24T11:55:13.630Z,40.2
2022-11-24T12:00:06.926Z,42.1
2022-11-24T12:05:02.122Z,41.5
2022-11-24T12:10:02.446Z,41.0
2022-11-24T12:15:27.083Z,42.0
2022-11-24T12:20:01.665Z,43.6
2022-11-24T12:25:01.794Z,43.6
2022-11-24T12:31:01.869Z,43.6
2022-11-24T12:36:01.619Z,44.0
2022-11-24T12:46:01.574Z,42.8
2022-11-24T12:51:02.948Z,43.7
2022-11-24T12:56:01.654Z,44.4
2022-11-24T13:01:17.359Z,45.2
2022-11-24T13:06:17.167Z,45.9
2022-11-24T13:12:13.565Z,45.8
2022-11-24T13:22:01.636Z,48.4
2022-11-24T13:27:01.622Z,52.5
2022-11-24T13:32:01.608Z,54.2
2022-11-24T13:42:01.716Z,54.9
2022-11-24T13:47:07.259Z,55.2
2022-11-24T13:52:01.562Z,54.5
2022-11-24T13:57:01.606Z,55.8
2022-11-24T14:02:01.814Z,58.9
2022-11-24T14:07:09.322Z,58.6
2022-11-24T14:12:01.509Z,57.8
2022-11-24T14:17:01.280Z,56.2
2022-11-24T14:22:01.725Z,53.0
2022-11-24T14:27:01.606Z,50.8
2022-11-24T14:32:01.618Z,49.8
2022-11-24T14:37:01.631Z,50.1
2022-11-24T14:42:01.696Z,54.3
2022-11-24T14:47:01.778Z,57.2
2022-11-24T14:52:01.650Z,58.9
2022-11-24T14:57:01.609Z,59.9
2022-11-24T15:02:01.727Z,60.0
2022-11-24T15:07:01.556Z,53.6
2022-11-24T15:12:01.355Z,51.5
2022-11-24T15:17:01.464Z,50.8
2022-11-24T15:22:02.015Z,52.3
2022-11-24T15:27:01.388Z,52.6
2022-11-24T15:32:01.579Z,57.7
2022-11-24T15:37:01.429Z,59.9
2022-11-24T15:42:01.772Z,59.6
2022-11-24T15:47:01.568Z,62.6
2022-11-24T15:52:01.381Z,65.8
2022-11-24T15:57:01.325Z,63.0
2022-11-24T16:02:02.105Z,59.9
2022-11-24T16:07:01.335Z,60.4
2022-11-24T16:12:01.662Z,60.1
2022-11-24T16:17:01.687Z,59.4
2022-11-24T16:22:01.719Z,60.2
2022-11-24T16:27:01.669Z,62.7
2022-11-24T16:32:01.843Z,66.6
2022-11-24T16:37:01.741Z,64.0
2022-11-24T16:42:01.740Z,61.3
2022-11-24T16:47:01.662Z,60.5
2022-11-24T16:52:01.652Z,60.1
2022-11-24T16:57:02.276Z,55.8
2022-11-24T17:02:01.899Z,55.2
2022-11-24T17:07:01.686Z,56.6
2022-11-24T17:12:01.662Z,58.3
2022-11-24T17:17:01.881Z,58.6
2022-11-24T17:22:01.690Z,59.5
2022-11-24T17:27:01.706Z,58.6
2022-11-24T17:32:01.841Z,56.8
2022-11-24T17:37:01.677Z,54.3
2022-11-24T17:42:01.672Z,53.0
2022-11-24T17:47:01.754Z,51.6
2022-11-24T17:52:01.651Z,52.2
2022-11-24T17:57:01.682Z,53.8
2022-11-24T18:02:01.808Z,55.3
2022-11-24T18:07:01.630Z,55.8
2022-11-24T18:12:01.657Z,56.6
2022-11-24T18:17:03.149Z,56.5
2022-11-24T18:22:01.640Z,57.6
2022-11-24T18:27:01.627Z,60.9
2022-11-24T18:32:01.840Z,61.7
2022-11-24T18:37:06.789Z,66.1
2022-11-24T18:42:01.821Z,70.2
2022-11-24T18:47:01.617Z,73.4
2022-11-24T18:52:01.640Z,76.6
2022-11-24T18:57:04.081Z,82.0
2022-11-24T19:02:01.740Z,84.7
2022-11-24T19:07:02.043Z,88.3
2022-11-24T19:12:03.117Z,87.4
2022-11-24T19:17:01.779Z,84.6
2022-11-24T19:22:01.852Z,84.5
2022-11-24T19:27:01.629Z,80.8
2022-11-24T19:32:01.742Z,68.6
2022-11-24T19:37:01.741Z,68.8
2022-11-24T19:42:01.624Z,70.1
2022-11-24T19:47:01.684Z,68.4
2022-11-24T19:52:01.637Z,68.8
2022-11-24T19:58:01.650Z,73.5
2022-11-24T20:03:01.840Z,68.8
2022-11-24T20:08:01.629Z,62.1
2022-11-24T20:13:01.612Z,57.2
2022-11-24T20:18:01.699Z,52.3
2022-11-24T20:23:01.618Z,52.5
2022-11-24T20:28:01.610Z,56.0
2022-11-24T20:33:01.594Z,59.5
2022-11-24T20:38:01.691Z,61.8
2022-11-24T20:43:01.922Z,62.8
2022-11-24T20:48:01.446Z,62.6
2022-11-24T20:53:01.426Z,57.7
2022-11-24T20:58:01.600Z,54.4
2022-11-24T21:03:01.414Z,52.2
2022-11-24T21:08:01.387Z,47.9
2022-11-24T21:13:01.361Z,45.6
2022-11-24T21:18:01.445Z,44.1
2022-11-24T21:23:02.176Z,42.3
2022-11-24T21:28:01.328Z,40.4
2022-11-24T21:33:01.375Z,41.4
2022-11-24T21:38:01.025Z,40.6
2022-11-24T21:43:01.647Z,40.0
2022-11-24T21:48:01.651Z,39.2
2022-11-24T21:53:03.832Z,36.3
2022-11-24T21:58:01.669Z,35.6
2022-11-24T22:03:02.205Z,34.3
2022-11-24T22:08:01.702Z,33.9
2022-11-24T22:13:01.807Z,33.4
2022-11-24T22:18:01.778Z,34.8
2022-11-24T22:23:01.669Z,34.3
2022-11-24T22:28:02.342Z,35.0
2022-11-24T22:33:01.681Z,34.4
2022-11-24T22:39:01.716Z,34.2
2022-11-24T22:44:02.357Z,33.4
2022-11-24T22:49:01.834Z,33.4
2022-11-24T22:54:01.677Z,31.8
2022-11-24T22:59:02.250Z,30.5
2022-11-24T23:04:01.850Z,28.9
2022-11-24T23:09:01.697Z,26.8
2022-11-24T23:14:01.646Z,25.8
2022-11-24T23:19:01.699Z,25.5
2022-11-24T23:24:02.218Z,25.4
2022-11-24T23:29:01.671Z,23.9
2022-11-24T23:34:01.622Z,23.9
2022-11-24T23:39:01.640Z,22.2
2022-11-24T23:44:01.861Z,19.8
2022-11-24T23:49:01.672Z,19.2
2022-11-24T23:54:01.620Z,19.8
2022-11-24T23:59:01.735Z,18.8
